sensor_id;sensor_type;location;lat;lon;timestamp;pressure;altitude;pressure_sealevel;temperature;humidity
51245;BME280;37840;47.562;18.738;2023-02-12T00:00:33;100961.56;;;4.58;73.16
51245;BME280;37840;47.562;18.738;2023-02-12T00:02:59;100958.22;;;4.52;73.50
51245;BME280;37840;47.562;18.738;2023-02-12T00:05:25;100952.13;;;4.49;73.65
51245;BME280;37840;47.562;18.738;2023-02-12T00:07:52;100966.22;;;4.48;74.36
51245;BME280;37840;47.562;18.738;2023-02-12T00:10:18;100966.16;;;4.50;74.42
51245;BME280;37840;47.562;18.738;2023-02-12T00:12:44;100979.50;;;4.44;74.89
51245;BME280;37840;47.562;18.738;2023-02-12T00:15:10;100981.16;;;4.48;74.92
51245;BME280;37840;47.562;18.738;2023-02-12T00:17:36;100998.59;;;4.52;74.92
51245;BME280;37840;47.562;18.738;2023-02-12T00:20:02;101018.84;;;4.50;75.03
51245;BME280;37840;47.562;18.738;2023-02-12T00:22:28;101024.06;;;4.53;75.29
51245;BME280;37840;47.562;18.738;2023-02-12T00:24:55;101023.13;;;4.54;75.36
51245;BME280;37840;47.562;18.738;2023-02-12T00:27:22;101015.25;;;4.53;75.58
51245;BME280;37840;47.562;18.738;2023-02-12T00:29:47;101030.06;;;4.58;75.60
51245;BME280;37840;47.562;18.738;2023-02-12T00:32:13;101026.53;;;4.59;75.80
51245;BME280;37840;47.562;18.738;2023-02-12T00:34:47;101033.53;;;4.59;75.97
51245;BME280;37840;47.562;18.738;2023-02-12T00:37:13;101030.88;;;4.60;75.97
51245;BME280;37840;47.562;18.738;2023-02-12T00:39:40;101035.25;;;4.61;75.94
51245;BME280;37840;47.562;18.738;2023-02-12T00:42:06;101032.69;;;4.58;76.08
51245;BME280;37840;47.562;18.738;2023-02-12T00:44:32;101023.91;;;4.59;76.06
51245;BME280;37840;47.562;18.738;2023-02-12T00:46:58;101024.75;;;4.60;75.90
51245;BME280;37840;47.562;18.738;2023-02-12T00:49:30;101020.31;;;4.62;75.91
51245;BME280;37840;47.562;18.738;2023-02-12T00:52:03;101034.31;;;4.64;75.94
51245;BME280;37840;47.562;18.738;2023-02-12T00:54:30;101032.69;;;4.58;76.06
51245;BME280;37840;47.562;18.738;2023-02-12T00:56:57;101031.88;;;4.56;76.16
51245;BME280;37840;47.562;18.738;2023-02-12T00:59:24;101041.56;;;4.54;76.33
51245;BME280;37840;47.562;18.738;2023-02-12T01:01:53;101049.63;;;4.48;76.50
51245;BME280;37840;47.562;18.738;2023-02-12T01:04:20;101054.13;;;4.44;76.59
51245;BME280;37840;47.562;18.738;2023-02-12T01:06:46;101052.31;;;4.46;76.57
51245;BME280;37840;47.562;18.738;2023-02-12T01:09:13;101054.19;;;4.41;76.92
51245;BME280;37840;47.562;18.738;2023-02-12T01:11:39;101057.78;;;4.37;77.37
51245;BME280;37840;47.562;18.738;2023-02-12T01:14:06;101045.34;;;4.44;77.30
51245;BME280;37840;47.562;18.738;2023-02-12T01:16:33;101043.75;;;4.38;77.41
51245;BME280;37840;47.562;18.738;2023-02-12T01:19:02;101038.50;;;4.37;77.60
51245;BME280;37840;47.562;18.738;2023-02-12T01:21:30;101035.75;;;4.41;77.57
51245;BME280;37840;47.562;18.738;2023-02-12T01:23:57;101030.59;;;4.37;77.85
51245;BME280;37840;47.562;18.738;2023-02-12T01:26:24;101032.41;;;4.35;77.78
51245;BME280;37840;47.562;18.738;2023-02-12T01:28:53;101026.34;;;4.31;77.85
51245;BME280;37840;47.562;18.738;2023-02-12T01:31:22;101026.28;;;4.34;77.91
51245;BME280;37840;47.562;18.738;2023-02-12T01:33:51;101028.94;;;4.33;77.95
51245;BME280;37840;47.562;18.738;2023-02-12T01:36:17;101024.78;;;4.24;78.24
51245;BME280;37840;47.562;18.738;2023-02-12T01:38:43;101032.66;;;4.24;78.26
51245;BME280;37840;47.562;18.738;2023-02-12T01:41:17;101030.06;;;4.22;78.42
51245;BME280;37840;47.562;18.738;2023-02-12T01:43:44;101023.16;;;4.18;78.59
51245;BME280;37840;47.562;18.738;2023-02-12T01:46:12;101016.06;;;4.20;78.71
51245;BME280;37840;47.562;18.738;2023-02-12T01:48:44;101013.66;;;4.11;79.04
51245;BME280;37840;47.562;18.738;2023-02-12T01:51:14;101006.75;;;4.07;79.31
51245;BME280;37840;47.562;18.738;2023-02-12T01:53:45;100998.81;;;4.08;79.25
51245;BME280;37840;47.562;18.738;2023-02-12T01:56:14;100985.66;;;4.08;79.43
51245;BME280;37840;47.562;18.738;2023-02-12T01:58:42;100981.44;;;4.01;79.93
51245;BME280;37840;47.562;18.738;2023-02-12T02:01:13;100971.78;;;4.02;79.94
51245;BME280;37840;47.562;18.738;2023-02-12T02:03:41;100967.41;;;4.01;80.14
51245;BME280;37840;47.562;18.738;2023-02-12T02:06:12;100981.41;;;4.03;80.10
51245;BME280;37840;47.562;18.738;2023-02-12T02:08:40;100991.31;;;3.93;80.96
51245;BME280;37840;47.562;18.738;2023-02-12T02:11:07;100991.25;;;3.95;81.41
51245;BME280;37840;47.562;18.738;2023-02-12T02:13:52;101001.84;;;3.92;81.49
51245;BME280;37840;47.562;18.738;2023-02-12T02:16:41;100993.03;;;3.94;81.57
51245;BME280;37840;47.562;18.738;2023-02-12T02:22:05;101002.72;;;3.92;81.59
51245;BME280;37840;47.562;18.738;2023-02-12T02:25:14;100980.81;;;3.92;81.85
51245;BME280;37840;47.562;18.738;2023-02-12T02:27:53;100984.41;;;3.87;81.99
51245;BME280;37840;47.562;18.738;2023-02-12T02:30:37;100981.81;;;3.86;82.17
51245;BME280;37840;47.562;18.738;2023-02-12T02:35:54;100985.50;;;3.77;82.54
51245;BME280;37840;47.562;18.738;2023-02-12T02:41:14;100972.34;;;3.79;82.73
51245;BME280;37840;47.562;18.738;2023-02-12T02:43:48;100958.22;;;3.81;82.83
51245;BME280;37840;47.562;18.738;2023-02-12T02:46:27;100957.50;;;3.76;83.20
51245;BME280;37840;47.562;18.738;2023-02-12T02:49:02;100954.03;;;3.74;83.37
51245;BME280;37840;47.562;18.738;2023-02-12T02:51:39;100955.78;;;3.74;83.55
51245;BME280;37840;47.562;18.738;2023-02-12T02:54:12;100960.19;;;3.72;83.64
51245;BME280;37840;47.562;18.738;2023-02-12T02:56:43;100961.12;;;3.71;83.86
51245;BME280;37840;47.562;18.738;2023-02-12T02:59:14;100973.66;;;3.59;84.29
51245;BME280;37840;47.562;18.738;2023-02-12T03:01:47;100972.81;;;3.57;84.57
51245;BME280;37840;47.562;18.738;2023-02-12T03:04:30;100979.00;;;3.55;84.89
51245;BME280;37840;47.562;18.738;2023-02-12T03:07:07;100994.66;;;3.61;84.70
51245;BME280;37840;47.562;18.738;2023-02-12T03:09:42;100998.06;;;3.66;84.46
51245;BME280;37840;47.562;18.738;2023-02-12T03:12:16;101001.56;;;3.65;84.50
51245;BME280;37840;47.562;18.738;2023-02-12T03:14:53;101007.75;;;3.64;84.50
51245;BME280;37840;47.562;18.738;2023-02-12T03:17:33;101005.12;;;3.64;84.42
51245;BME280;37840;47.562;18.738;2023-02-12T03:20:08;101009.41;;;3.68;84.23
51245;BME280;37840;47.562;18.738;2023-02-12T03:22:39;101019.87;;;3.70;84.16
51245;BME280;37840;47.562;18.738;2023-02-12T03:25:17;101032.28;;;3.64;84.42
51245;BME280;37840;47.562;18.738;2023-02-12T03:27:58;101038.44;;;3.63;84.58
51245;BME280;37840;47.562;18.738;2023-02-12T03:30:37;101060.34;;;3.64;84.40
51245;BME280;37840;47.562;18.738;2023-02-12T03:33:09;101075.31;;;3.62;84.53
51245;BME280;37840;47.562;18.738;2023-02-12T03:35:54;101084.06;;;3.61;84.32
51245;BME280;37840;47.562;18.738;2023-02-12T03:38:38;101090.28;;;3.58;84.37
51245;BME280;37840;47.562;18.738;2023-02-12T03:41:10;101090.22;;;3.61;84.35
51245;BME280;37840;47.562;18.738;2023-02-12T03:43:48;101098.06;;;3.63;83.79
51245;BME280;37840;47.562;18.738;2023-02-12T03:46:26;101106.91;;;3.59;83.61
51245;BME280;37840;47.562;18.738;2023-02-12T03:49:07;101104.34;;;3.57;83.69
51245;BME280;37840;47.562;18.738;2023-02-12T03:51:36;101106.88;;;3.60;83.62
51245;BME280;37840;47.562;18.738;2023-02-12T03:54:04;101106.06;;;3.58;83.64
51245;BME280;37840;47.562;18.738;2023-02-12T03:56:58;101097.28;;;3.59;83.63
51245;BME280;37840;47.562;18.738;2023-02-12T03:59:26;101106.06;;;3.58;83.56
51245;BME280;37840;47.562;18.738;2023-02-12T04:01:55;101104.28;;;3.59;83.42
51245;BME280;37840;47.562;18.738;2023-02-12T04:04:23;101114.78;;;3.60;83.26
51245;BME280;37840;47.562;18.738;2023-02-12T04:06:49;101121.81;;;3.60;83.14
51245;BME280;37840;47.562;18.738;2023-02-12T04:09:17;101119.31;;;3.54;83.31
51245;BME280;37840;47.562;18.738;2023-02-12T04:17:04;101136.88;;;3.52;83.73
51245;BME280;37840;47.562;18.738;2023-02-12T04:19:42;101140.34;;;3.54;83.42
51245;BME280;37840;47.562;18.738;2023-02-12T04:25:43;101145.72;;;3.47;83.76
51245;BME280;37840;47.562;18.738;2023-02-12T04:28:34;101147.41;;;3.52;83.80
51245;BME280;37840;47.562;18.738;2023-02-12T04:31:10;101147.38;;;3.53;83.79
51245;BME280;37840;47.562;18.738;2023-02-12T04:33:44;101143.84;;;3.53;83.89
51245;BME280;37840;47.562;18.738;2023-02-12T04:36:33;101146.56;;;3.50;83.98
51245;BME280;37840;47.562;18.738;2023-02-12T04:39:14;101139.59;;;3.47;84.30
51245;BME280;37840;47.562;18.738;2023-02-12T04:41:42;101138.69;;;3.48;84.44
51245;BME280;37840;47.562;18.738;2023-02-12T04:46:42;101141.63;;;3.31;84.93
51245;BME280;37840;47.562;18.738;2023-02-12T04:49:12;101150.47;;;3.27;85.18
51245;BME280;37840;47.562;18.738;2023-02-12T04:51:39;101156.72;;;3.21;85.55
51245;BME280;37840;47.562;18.738;2023-02-12T04:54:05;101146.25;;;3.20;85.65
51245;BME280;37840;47.562;18.738;2023-02-12T04:56:31;101144.56;;;3.16;86.11
51245;BME280;37840;47.562;18.738;2023-02-12T04:58:57;101150.75;;;3.12;86.35
51245;BME280;37840;47.562;18.738;2023-02-12T05:01:23;101164.75;;;3.14;86.47
51245;BME280;37840;47.562;18.738;2023-02-12T05:03:50;101166.50;;;3.15;86.72
51245;BME280;37840;47.562;18.738;2023-02-12T05:06:17;101166.50;;;3.15;86.91
51245;BME280;37840;47.562;18.738;2023-02-12T05:08:43;101171.84;;;3.09;87.06
51245;BME280;37840;47.562;18.738;2023-02-12T05:11:10;101163.06;;;3.08;87.27
51245;BME280;37840;47.562;18.738;2023-02-12T05:13:37;101168.38;;;3.06;87.25
51245;BME280;37840;47.562;18.738;2023-02-12T05:16:04;101165.87;;;2.99;87.67
51245;BME280;37840;47.562;18.738;2023-02-12T05:18:32;101171.12;;;3.00;87.81
51245;BME280;37840;47.562;18.738;2023-02-12T05:21:00;101174.59;;;3.01;87.88
51245;BME280;37840;47.562;18.738;2023-02-12T05:23:31;101184.28;;;2.97;87.86
51245;BME280;37840;47.562;18.738;2023-02-12T05:25:59;101187.03;;;2.91;88.13
51245;BME280;37840;47.562;18.738;2023-02-12T05:28:26;101192.31;;;2.90;88.12
51245;BME280;37840;47.562;18.738;2023-02-12T05:30:52;101194.97;;;2.88;88.26
51245;BME280;37840;47.562;18.738;2023-02-12T05:33:18;101194.09;;;2.88;88.49
51245;BME280;37840;47.562;18.738;2023-02-12T05:35:44;101200.13;;;2.94;88.20
51245;BME280;37840;47.562;18.738;2023-02-12T05:38:10;101201.03;;;2.92;88.27
51245;BME280;37840;47.562;18.738;2023-02-12T05:40:36;101205.38;;;2.93;88.34
51245;BME280;37840;47.562;18.738;2023-02-12T05:43:02;101203.78;;;2.84;88.77
51245;BME280;37840;47.562;18.738;2023-02-12T05:45:28;101202.91;;;2.83;89.21
51245;BME280;37840;47.562;18.738;2023-02-12T05:47:55;101210.78;;;2.85;89.04
51245;BME280;37840;47.562;18.738;2023-02-12T05:50:21;101206.31;;;2.89;88.92
51245;BME280;37840;47.562;18.738;2023-02-12T05:52:47;101216.87;;;2.87;88.87
51245;BME280;37840;47.562;18.738;2023-02-12T05:55:13;101210.78;;;2.85;88.79
51245;BME280;37840;47.562;18.738;2023-02-12T05:57:39;101219.56;;;2.82;88.85
51245;BME280;37840;47.562;18.738;2023-02-12T06:00:07;101232.69;;;2.82;88.96
51245;BME280;37840;47.562;18.738;2023-02-12T06:02:33;101228.31;;;2.83;89.15
51245;BME280;37840;47.562;18.738;2023-02-12T06:05:00;101231.81;;;2.85;89.05
51245;BME280;37840;47.562;18.738;2023-02-12T06:07:26;101237.84;;;2.89;88.86
51245;BME280;37840;47.562;18.738;2023-02-12T06:09:52;101243.94;;;2.91;89.02
51245;BME280;37840;47.562;18.738;2023-02-12T06:12:20;101242.16;;;2.96;89.06
51245;BME280;37840;47.562;18.738;2023-02-12T06:14:46;101248.94;;;3.08;88.95
51245;BME280;37840;47.562;18.738;2023-02-12T06:17:12;101251.44;;;3.17;88.45
51245;BME280;37840;47.562;18.738;2023-02-12T06:19:38;101250.34;;;3.29;88.11
51245;BME280;37840;47.562;18.738;2023-02-12T06:22:04;101251.75;;;3.50;87.40
51245;BME280;37840;47.562;18.738;2023-02-12T06:24:30;101274.06;;;3.77;86.48
51245;BME280;37840;47.562;18.738;2023-02-12T06:26:56;101272.41;;;4.18;84.18
51245;BME280;37840;47.562;18.738;2023-02-12T06:29:22;101287.41;;;4.56;82.98
51245;BME280;37840;47.562;18.738;2023-02-12T06:31:48;101261.72;;;5.05;79.81
51245;BME280;37840;47.562;18.738;2023-02-12T06:34:15;101278.41;;;5.41;77.69
51245;BME280;37840;47.562;18.738;2023-02-12T06:36:44;101288.75;;;5.83;76.03
51245;BME280;37840;47.562;18.738;2023-02-12T06:39:12;101283.88;;;6.33;74.13
51245;BME280;37840;47.562;18.738;2023-02-12T06:41:39;101285.69;;;6.91;71.45
51245;BME280;37840;47.562;18.738;2023-02-12T06:44:05;101280.13;;;7.53;68.54
51245;BME280;37840;47.562;18.738;2023-02-12T06:46:31;101283.09;;;8.20;65.95
51245;BME280;37840;47.562;18.738;2023-02-12T06:48:58;101291.16;;;8.89;63.23
51245;BME280;37840;47.562;18.738;2023-02-12T06:51:25;101304.06;;;9.63;60.61
51245;BME280;37840;47.562;18.738;2023-02-12T06:53:53;101302.03;;;10.31;57.89
51245;BME280;37840;47.562;18.738;2023-02-12T06:56:23;101296.72;;;10.88;55.96
51245;BME280;37840;47.562;18.738;2023-02-12T06:58:55;101305.34;;;11.48;53.80
51245;BME280;37840;47.562;18.738;2023-02-12T07:01:23;101312.66;;;12.14;51.78
51245;BME280;37840;47.562;18.738;2023-02-12T07:03:55;101309.81;;;12.84;49.83
51245;BME280;37840;47.562;18.738;2023-02-12T07:06:21;101317.47;;;13.54;47.92
51245;BME280;37840;47.562;18.738;2023-02-12T07:08:48;101317.50;;;14.13;46.09
51245;BME280;37840;47.562;18.738;2023-02-12T07:11:14;101323.88;;;14.69;44.77
51245;BME280;37840;47.562;18.738;2023-02-12T07:13:41;101318.66;;;15.09;43.45
51245;BME280;37840;47.562;18.738;2023-02-12T07:16:12;101332.13;;;15.62;42.21
51245;BME280;37840;47.562;18.738;2023-02-12T07:18:39;101345.37;;;16.05;41.18
51245;BME280;37840;47.562;18.738;2023-02-12T07:21:07;101343.66;;;16.42;40.25
51245;BME280;37840;47.562;18.738;2023-02-12T07:23:35;101346.03;;;16.73;39.58
51245;BME280;37840;47.562;18.738;2023-02-12T07:26:04;101347.66;;;17.12;38.50
51245;BME280;37840;47.562;18.738;2023-02-12T07:28:31;101351.81;;;17.53;37.76
51245;BME280;37840;47.562;18.738;2023-02-12T07:30:59;101360.88;;;18.00;36.73
51245;BME280;37840;47.562;18.738;2023-02-12T07:33:25;101362.44;;;18.49;35.70
51245;BME280;37840;47.562;18.738;2023-02-12T07:35:51;101367.47;;;18.99;34.88
51245;BME280;37840;47.562;18.738;2023-02-12T07:38:17;101352.69;;;19.37;34.22
51245;BME280;37840;47.562;18.738;2023-02-12T07:40:43;101353.56;;;19.81;33.19
51245;BME280;37840;47.562;18.738;2023-02-12T07:43:09;101357.03;;;20.25;32.27
51245;BME280;37840;47.562;18.738;2023-02-12T07:45:35;101349.59;;;20.69;31.54
51245;BME280;37840;47.562;18.738;2023-02-12T07:48:01;101355.47;;;20.74;31.25
51245;BME280;37840;47.562;18.738;2023-02-12T07:50:27;101353.13;;;21.01;30.86
51245;BME280;37840;47.562;18.738;2023-02-12T07:52:53;101360.19;;;21.32;30.19
51245;BME280;37840;47.562;18.738;2023-02-12T07:55:19;101363.63;;;21.44;29.94
51245;BME280;37840;47.562;18.738;2023-02-12T07:57:45;101355.34;;;21.36;29.82
51245;BME280;37840;47.562;18.738;2023-02-12T08:00:11;101362.50;;;21.56;29.83
51245;BME280;37840;47.562;18.738;2023-02-12T08:02:37;101354.81;;;21.02;30.25
51245;BME280;37840;47.562;18.738;2023-02-12T08:05:03;101351.81;;;20.85;30.65
51245;BME280;37840;47.562;18.738;2023-02-12T08:07:30;101356.09;;;19.94;32.05
51245;BME280;37840;47.562;18.738;2023-02-12T08:09:55;101350.91;;;18.59;33.94
51245;BME280;37840;47.562;18.738;2023-02-12T08:12:21;101356.19;;;17.78;35.97
51245;BME280;37840;47.562;18.738;2023-02-12T08:14:48;101353.81;;;17.01;37.51
51245;BME280;37840;47.562;18.738;2023-02-12T08:17:14;101363.38;;;15.90;39.89
51245;BME280;37840;47.562;18.738;2023-02-12T08:19:40;101370.81;;;14.89;42.13
51245;BME280;37840;47.562;18.738;2023-02-12T08:22:06;101368.87;;;14.03;44.55
51245;BME280;37840;47.562;18.738;2023-02-12T08:24:32;101379.16;;;13.49;45.95
51245;BME280;37840;47.562;18.738;2023-02-12T08:26:58;101380.25;;;13.13;47.04
51245;BME280;37840;47.562;18.738;2023-02-12T08:29:27;101383.06;;;12.78;48.12
51245;BME280;37840;47.562;18.738;2023-02-12T08:32:01;101390.84;;;12.32;49.53
51245;BME280;37840;47.562;18.738;2023-02-12T08:34:29;101385.59;;;12.13;50.33
51245;BME280;37840;47.562;18.738;2023-02-12T08:36:56;101382.59;;;11.84;51.09
51245;BME280;37840;47.562;18.738;2023-02-12T08:39:24;101385.56;;;11.42;52.27
51245;BME280;37840;47.562;18.738;2023-02-12T08:41:50;101385.06;;;11.15;53.27
51245;BME280;37840;47.562;18.738;2023-02-12T08:44:18;101374.41;;;11.15;54.01
51245;BME280;37840;47.562;18.738;2023-02-12T08:46:46;101391.06;;;11.20;53.67
51245;BME280;37840;47.562;18.738;2023-02-12T08:49:22;101389.75;;;11.10;53.94
51245;BME280;37840;47.562;18.738;2023-02-12T08:51:50;101396.81;;;11.11;54.32
51245;BME280;37840;47.562;18.738;2023-02-12T08:54:22;101396.09;;;11.07;54.69
51245;BME280;37840;47.562;18.738;2023-02-12T08:56:50;101405.22;;;11.01;54.49
51245;BME280;37840;47.562;18.738;2023-02-12T08:59:18;101403.28;;;10.86;54.78
51245;BME280;37840;47.562;18.738;2023-02-12T09:01:44;101406.13;;;10.81;55.40
51245;BME280;37840;47.562;18.738;2023-02-12T09:04:19;101408.62;;;10.66;55.72
51245;BME280;37840;47.562;18.738;2023-02-12T09:06:46;101410.63;;;10.60;56.19
51245;BME280;37840;47.562;18.738;2023-02-12T09:09:13;101423.84;;;10.62;56.39
51245;BME280;37840;47.562;18.738;2023-02-12T09:11:40;101430.66;;;10.69;56.39
51245;BME280;37840;47.562;18.738;2023-02-12T09:14:10;101432.56;;;10.66;56.28
51245;BME280;37840;47.562;18.738;2023-02-12T09:16:36;101433.94;;;10.74;56.24
51245;BME280;37840;47.562;18.738;2023-02-12T09:19:04;101434.31;;;10.86;56.10
51245;BME280;37840;47.562;18.738;2023-02-12T09:21:30;101430.50;;;10.72;56.23
51245;BME280;37840;47.562;18.738;2023-02-12T09:23:56;101433.63;;;10.82;55.83
51245;BME280;37840;47.562;18.738;2023-02-12T09:26:24;101436.03;;;10.68;56.63
51245;BME280;37840;47.562;18.738;2023-02-12T09:28:51;101443.47;;;10.80;56.00
51245;BME280;37840;47.562;18.738;2023-02-12T09:31:21;101444.53;;;10.76;56.48
51245;BME280;37840;47.562;18.738;2023-02-12T09:33:56;101444.59;;;10.74;56.25
51245;BME280;37840;47.562;18.738;2023-02-12T09:36:22;101447.31;;;10.73;56.16
51245;BME280;37840;47.562;18.738;2023-02-12T09:38:49;101457.91;;;10.74;56.50
51245;BME280;37840;47.562;18.738;2023-02-12T09:41:59;101456.50;;;10.86;56.64
51245;BME280;37840;47.562;18.738;2023-02-12T09:49:48;101478.22;;;10.96;55.63
51245;BME280;37840;47.562;18.738;2023-02-12T09:52:19;101481.41;;;11.04;55.41
51245;BME280;37840;47.562;18.738;2023-02-12T09:58:24;101472.66;;;11.21;55.21
51245;BME280;37840;47.562;18.738;2023-02-12T10:00:59;101489.88;;;11.33;54.80
51245;BME280;37840;47.562;18.738;2023-02-12T10:03:26;101491.09;;;11.26;54.76
51245;BME280;37840;47.562;18.738;2023-02-12T10:13:03;101494.25;;;11.34;55.56
51245;BME280;37840;47.562;18.738;2023-02-12T10:19:03;101499.31;;;11.40;55.73
51245;BME280;37840;47.562;18.738;2023-02-12T10:22:16;101500.22;;;11.39;55.38
51245;BME280;37840;47.562;18.738;2023-02-12T10:44:22;101494.47;;;11.29;53.17
51245;BME280;37840;47.562;18.738;2023-02-12T10:46:54;101496.34;;;11.27;53.45
51245;BME280;37840;47.562;18.738;2023-02-12T11:10:50;101501.72;;;11.26;54.09
51245;BME280;37840;47.562;18.738;2023-02-12T11:16:29;101500.69;;;11.09;53.00
51245;BME280;37840;47.562;18.738;2023-02-12T11:19:00;101504.37;;;11.07;53.87
51245;BME280;37840;47.562;18.738;2023-02-12T11:21:27;101505.63;;;11.18;52.32
51245;BME280;37840;47.562;18.738;2023-02-12T11:27:40;101495.63;;;11.42;52.24
51245;BME280;37840;47.562;18.738;2023-02-12T11:32:38;101493.59;;;11.67;52.05
51245;BME280;37840;47.562;18.738;2023-02-12T11:35:23;101500.44;;;11.72;51.18
51245;BME280;37840;47.562;18.738;2023-02-12T11:37:55;101495.69;;;11.79;50.14
51245;BME280;37840;47.562;18.738;2023-02-12T11:40:23;101492.31;;;11.75;49.87
51245;BME280;37840;47.562;18.738;2023-02-12T11:43:01;101494.63;;;11.64;50.81
51245;BME280;37840;47.562;18.738;2023-02-12T11:45:36;101495.41;;;11.66;50.83
51245;BME280;37840;47.562;18.738;2023-02-12T11:51:27;101492.38;;;11.74;49.91
51245;BME280;37840;47.562;18.738;2023-02-12T11:53:59;101489.25;;;11.83;49.49
51245;BME280;37840;47.562;18.738;2023-02-12T11:56:45;101496.19;;;11.87;49.31
51245;BME280;37840;47.562;18.738;2023-02-12T11:59:51;101492.66;;;11.87;49.01
51245;BME280;37840;47.562;18.738;2023-02-12T12:02:30;101490.84;;;11.87;49.62
51245;BME280;37840;47.562;18.738;2023-02-12T12:26:17;101478.34;;;11.70;50.13
51245;BME280;37840;47.562;18.738;2023-02-12T12:48:56;101459.69;;;11.70;48.24
51245;BME280;37840;47.562;18.738;2023-02-12T12:51:47;101471.34;;;11.68;48.30
51245;BME280;37840;47.562;18.738;2023-02-12T13:00:02;101472.59;;;11.41;48.48
51245;BME280;37840;47.562;18.738;2023-02-12T13:05:42;101477.47;;;11.13;48.37
51245;BME280;37840;47.562;18.738;2023-02-12T13:10:53;101470.69;;;11.06;49.04
51245;BME280;37840;47.562;18.738;2023-02-12T13:13:36;101477.09;;;11.01;49.13
51245;BME280;37840;47.562;18.738;2023-02-12T13:23:57;101465.38;;;11.06;48.91
51245;BME280;37840;47.562;18.738;2023-02-12T13:26:49;101467.25;;;11.04;48.54
51245;BME280;37840;47.562;18.738;2023-02-12T13:34:26;101476.81;;;11.08;47.83
51245;BME280;37840;47.562;18.738;2023-02-12T13:36:54;101475.28;;;11.02;47.99
51245;BME280;37840;47.562;18.738;2023-02-12T13:42:28;101471.63;;;11.05;48.21
51245;BME280;37840;47.562;18.738;2023-02-12T13:50:46;101470.66;;;10.87;47.96
51245;BME280;37840;47.562;18.738;2023-02-12T13:58:51;101476.47;;;10.76;48.16
51245;BME280;37840;47.562;18.738;2023-02-12T14:01:44;101487.16;;;10.74;47.75
51245;BME280;37840;47.562;18.738;2023-02-12T14:06:59;101489.50;;;10.61;47.59
51245;BME280;37840;47.562;18.738;2023-02-12T14:10:17;101491.81;;;10.49;47.45
51245;BME280;37840;47.562;18.738;2023-02-12T14:14:56;101495.00;;;10.36;48.35
51245;BME280;37840;47.562;18.738;2023-02-12T14:22:59;101489.28;;;10.24;48.26
51245;BME280;37840;47.562;18.738;2023-02-12T14:25:33;101485.97;;;10.18;48.33
51245;BME280;37840;47.562;18.738;2023-02-12T14:28:27;101492.16;;;10.19;48.20
51245;BME280;37840;47.562;18.738;2023-02-12T14:38:59;101503.19;;;10.10;47.81
51245;BME280;37840;47.562;18.738;2023-02-12T14:41:31;101505.22;;;10.03;47.87
51245;BME280;37840;47.562;18.738;2023-02-12T14:49:49;101499.59;;;9.89;47.83
51245;BME280;37840;47.562;18.738;2023-02-12T14:52:26;101507.91;;;9.79;47.75
51245;BME280;37840;47.562;18.738;2023-02-12T14:54:57;101506.44;;;9.72;47.71
51245;BME280;37840;47.562;18.738;2023-02-12T14:57:33;101508.28;;;9.70;47.82
51245;BME280;37840;47.562;18.738;2023-02-12T15:02:35;101512.34;;;9.57;48.04
51245;BME280;37840;47.562;18.738;2023-02-12T15:05:18;101512.81;;;9.45;48.14
51245;BME280;37840;47.562;18.738;2023-02-12T15:07:50;101507.72;;;9.38;48.37
51245;BME280;37840;47.562;18.738;2023-02-12T15:10:28;101509.00;;;9.28;48.71
51245;BME280;37840;47.562;18.738;2023-02-12T15:21:22;101509.78;;;9.07;49.32
51245;BME280;37840;47.562;18.738;2023-02-12T15:24:01;101509.38;;;8.94;49.73
51245;BME280;37840;47.562;18.738;2023-02-12T15:26:30;101513.00;;;8.91;49.71
51245;BME280;37840;47.562;18.738;2023-02-12T15:28:58;101520.16;;;8.89;49.79
51245;BME280;37840;47.562;18.738;2023-02-12T15:31:26;101515.84;;;8.87;49.87
51245;BME280;37840;47.562;18.738;2023-02-12T15:33:57;101506.34;;;8.80;50.04
51245;BME280;37840;47.562;18.738;2023-02-12T15:36:26;101507.28;;;8.78;50.10
51245;BME280;37840;47.562;18.738;2023-02-12T15:38:55;101513.56;;;8.76;50.13
51245;BME280;37840;47.562;18.738;2023-02-12T15:43:59;101519.38;;;8.61;50.46
51245;BME280;37840;47.562;18.738;2023-02-12T15:46:25;101522.91;;;8.61;50.56
51245;BME280;37840;47.562;18.738;2023-02-12T15:48:51;101528.31;;;8.58;50.75
51245;BME280;37840;47.562;18.738;2023-02-12T15:51:32;101528.44;;;8.55;50.85
51245;BME280;37840;47.562;18.738;2023-02-12T15:54:03;101523.31;;;8.49;50.96
51245;BME280;37840;47.562;18.738;2023-02-12T15:56:31;101531.00;;;8.30;51.54
51245;BME280;37840;47.562;18.738;2023-02-12T15:59:01;101536.50;;;8.24;51.79
51245;BME280;37840;47.562;18.738;2023-02-12T16:01:32;101534.84;;;8.20;51.93
51245;BME280;37840;47.562;18.738;2023-02-12T16:04:02;101548.41;;;8.10;52.35
51245;BME280;37840;47.562;18.738;2023-02-12T16:06:31;101554.00;;;8.01;52.67
51245;BME280;37840;47.562;18.738;2023-02-12T16:11:28;101562.19;;;7.93;53.04
51245;BME280;37840;47.562;18.738;2023-02-12T16:14:07;101560.44;;;7.92;53.08
51245;BME280;37840;47.562;18.738;2023-02-12T16:16:44;101563.34;;;7.85;53.26
51245;BME280;37840;47.562;18.738;2023-02-12T16:21:42;101577.13;;;7.66;53.73
51245;BME280;37840;47.562;18.738;2023-02-12T16:24:21;101569.22;;;7.65;53.72
51245;BME280;37840;47.562;18.738;2023-02-12T16:26:50;101572.97;;;7.58;53.86
51245;BME280;37840;47.562;18.738;2023-02-12T16:29:17;101573.09;;;7.53;53.92
51245;BME280;37840;47.562;18.738;2023-02-12T16:31:59;101574.28;;;7.43;54.17
51245;BME280;37840;47.562;18.738;2023-02-12T16:34:32;101581.66;;;7.31;54.63
51245;BME280;37840;47.562;18.738;2023-02-12T16:36:58;101580.06;;;7.26;54.67
51245;BME280;37840;47.562;18.738;2023-02-12T16:42:16;101604.41;;;7.06;55.18